sensor_id;sensor_type;location;lat;lon;timestamp;pressure;altitude;pressure_sealevel;temperature;humidity
12973;BME280;6551;51.056;9.466;2023-05-20T00:01:42;98215.59;;;18.24;56.59
12973;BME280;6551;51.056;9.466;2023-05-20T00:04:08;98212.31;;;18.22;56.35
12973;BME280;6551;51.056;9.466;2023-05-20T00:06:33;98215.25;;;18.16;56.28
12973;BME280;6551;51.056;9.466;2023-05-20T00:08:59;98204.84;;;18.02;56.01
12973;BME280;6551;51.056;9.466;2023-05-20T00:11:25;98215.44;;;18.09;56.71
12973;BME280;6551;51.056;9.466;2023-05-20T00:13:51;98203.00;;;18.08;56.76
12973;BME280;6551;51.056;9.466;2023-05-20T00:16:17;98213.97;;;18.23;56.83
12973;BME280;6551;51.056;9.466;2023-05-20T00:18:44;98210.13;;;18.19;56.34
12973;BME280;6551;51.056;9.466;2023-05-20T00:21:11;98209.63;;;17.95;56.30
12973;BME280;6551;51.056;9.466;2023-05-20T00:23:36;98203.38;;;17.68;56.77
12973;BME280;6551;51.056;9.466;2023-05-20T00:26:05;98198.72;;;17.64;57.19
12973;BME280;6551;51.056;9.466;2023-05-20T00:28:32;98197.56;;;17.55;57.69
12973;BME280;6551;51.056;9.466;2023-05-20T00:30:58;98188.19;;;17.40;57.82
12973;BME280;6551;51.056;9.466;2023-05-20T00:33:26;98184.72;;;17.45;57.95
12973;BME280;6551;51.056;9.466;2023-05-20T00:35:51;98188.31;;;17.50;58.71
12973;BME280;6551;51.056;9.466;2023-05-20T00:38:17;98178.75;;;17.60;58.19
12973;BME280;6551;51.056;9.466;2023-05-20T00:40:44;98181.63;;;17.75;57.76
12973;BME280;6551;51.056;9.466;2023-05-20T00:43:10;98184.06;;;17.76;57.52
12973;BME280;6551;51.056;9.466;2023-05-20T00:45:37;98173.09;;;17.83;57.84
12973;BME280;6551;51.056;9.466;2023-05-20T00:48:05;98169.06;;;17.85;57.81
12973;BME280;6551;51.056;9.466;2023-05-20T00:50:31;98160.38;;;17.78;57.36
12973;BME280;6551;51.056;9.466;2023-05-20T00:52:58;98168.56;;;17.88;57.40
12973;BME280;6551;51.056;9.466;2023-05-20T00:55:24;98168.50;;;17.57;57.34
12973;BME280;6551;51.056;9.466;2023-05-20T00:57:51;98172.84;;;17.84;57.71
12973;BME280;6551;51.056;9.466;2023-05-20T01:00:18;98173.72;;;17.90;57.22
12973;BME280;6551;51.056;9.466;2023-05-20T01:02:44;98171.97;;;17.79;57.23
12973;BME280;6551;51.056;9.466;2023-05-20T01:05:10;98174.91;;;17.77;57.16
12973;BME280;6551;51.056;9.466;2023-05-20T01:07:35;98167.78;;;17.66;57.81
12973;BME280;6551;51.056;9.466;2023-05-20T01:10:01;98167.38;;;17.36;57.88
12973;BME280;6551;51.056;9.466;2023-05-20T01:12:39;98169.53;;;17.56;58.25
12973;BME280;6551;51.056;9.466;2023-05-20T01:15:08;98168.66;;;17.12;58.96
12973;BME280;6551;51.056;9.466;2023-05-20T01:17:48;98173.09;;;17.01;59.23
12973;BME280;6551;51.056;9.466;2023-05-20T01:20:17;98162.97;;;16.91;59.57
12973;BME280;6551;51.056;9.466;2023-05-20T01:22:53;98158.34;;;16.87;60.04
12973;BME280;6551;51.056;9.466;2023-05-20T01:25:20;98163.47;;;16.88;60.24
12973;BME280;6551;51.056;9.466;2023-05-20T01:27:47;98154.31;;;17.06;60.01
12973;BME280;6551;51.056;9.466;2023-05-20T01:30:16;98163.19;;;17.23;60.02
12973;BME280;6551;51.056;9.466;2023-05-20T01:32:53;98163.75;;;17.47;59.21
12973;BME280;6551;51.056;9.466;2023-05-20T01:35:22;98156.81;;;17.51;58.82
12973;BME280;6551;51.056;9.466;2023-05-20T01:37:49;98156.09;;;17.39;58.24
12973;BME280;6551;51.056;9.466;2023-05-20T01:40:17;98158.91;;;17.27;58.73
12973;BME280;6551;51.056;9.466;2023-05-20T01:42:44;98153.03;;;17.30;59.06
12973;BME280;6551;51.056;9.466;2023-05-20T01:45:12;98162.81;;;17.36;59.01
12973;BME280;6551;51.056;9.466;2023-05-20T01:47:39;98161.50;;;17.39;58.98
12973;BME280;6551;51.056;9.466;2023-05-20T01:50:06;98155.59;;;17.42;59.15
12973;BME280;6551;51.056;9.466;2023-05-20T01:52:32;98161.75;;;17.37;59.02
12973;BME280;6551;51.056;9.466;2023-05-20T01:55:00;98155.22;;;17.33;58.78
12973;BME280;6551;51.056;9.466;2023-05-20T01:57:26;98151.38;;;17.08;59.54
12973;BME280;6551;51.056;9.466;2023-05-20T01:59:51;98156.25;;;16.72;60.17
12973;BME280;6551;51.056;9.466;2023-05-20T02:02:18;98151.53;;;16.79;60.28
12973;BME280;6551;51.056;9.466;2023-05-20T02:04:47;98142.09;;;16.60;60.75
12973;BME280;6551;51.056;9.466;2023-05-20T02:07:15;98146.94;;;16.63;60.95
12973;BME280;6551;51.056;9.466;2023-05-20T02:09:42;98143.34;;;16.74;60.78
12973;BME280;6551;51.056;9.466;2023-05-20T02:12:10;98147.28;;;16.67;60.55
12973;BME280;6551;51.056;9.466;2023-05-20T02:14:47;98137.09;;;16.69;61.27
12973;BME280;6551;51.056;9.466;2023-05-20T02:17:16;98145.09;;;16.64;61.21
12973;BME280;6551;51.056;9.466;2023-05-20T02:19:44;98148.91;;;16.68;61.08
12973;BME280;6551;51.056;9.466;2023-05-20T02:22:13;98140.94;;;16.56;61.54
12973;BME280;6551;51.056;9.466;2023-05-20T02:24:39;98139.19;;;16.50;61.65
12973;BME280;6551;51.056;9.466;2023-05-20T02:27:05;98140.56;;;16.53;61.51
12973;BME280;6551;51.056;9.466;2023-05-20T02:29:32;98139.41;;;16.60;61.41
12973;BME280;6551;51.056;9.466;2023-05-20T02:32:01;98138.72;;;16.70;61.33
12973;BME280;6551;51.056;9.466;2023-05-20T02:34:27;98136.44;;;16.78;60.96
12973;BME280;6551;51.056;9.466;2023-05-20T02:36:54;98135.66;;;17.00;60.94
12973;BME280;6551;51.056;9.466;2023-05-20T02:39:21;98131.25;;;17.10;60.05
12973;BME280;6551;51.056;9.466;2023-05-20T02:41:47;98135.97;;;17.03;60.32
12973;BME280;6551;51.056;9.466;2023-05-20T02:44:14;98127.16;;;17.08;60.45
12973;BME280;6551;51.056;9.466;2023-05-20T02:46:42;98124.28;;;16.92;60.31
12973;BME280;6551;51.056;9.466;2023-05-20T02:49:09;98125.03;;;16.88;60.89
12973;BME280;6551;51.056;9.466;2023-05-20T02:51:36;98124.78;;;17.11;60.27
12973;BME280;6551;51.056;9.466;2023-05-20T02:54:02;98131.47;;;17.09;60.27
12973;BME280;6551;51.056;9.466;2023-05-20T02:56:30;98128.63;;;17.15;60.29
12973;BME280;6551;51.056;9.466;2023-05-20T02:58:56;98134.72;;;17.11;60.14
12973;BME280;6551;51.056;9.466;2023-05-20T03:01:22;98127.63;;;17.21;59.87
12973;BME280;6551;51.056;9.466;2023-05-20T03:03:48;98127.63;;;17.21;59.70
12973;BME280;6551;51.056;9.466;2023-05-20T03:06:14;98130.63;;;17.25;59.71
12973;BME280;6551;51.056;9.466;2023-05-20T03:08:40;98134.34;;;17.40;59.90
12973;BME280;6551;51.056;9.466;2023-05-20T03:11:07;98127.75;;;17.31;59.42
12973;BME280;6551;51.056;9.466;2023-05-20T03:13:33;98135.00;;;17.31;59.60
12973;BME280;6551;51.056;9.466;2023-05-20T03:16:00;98136.94;;;17.35;59.57
12973;BME280;6551;51.056;9.466;2023-05-20T03:18:26;98127.63;;;17.21;59.78
12973;BME280;6551;51.056;9.466;2023-05-20T03:20:52;98128.38;;;17.17;59.78
12973;BME280;6551;51.056;9.466;2023-05-20T03:23:19;98128.19;;;17.02;60.09
12973;BME280;6551;51.056;9.466;2023-05-20T03:25:45;98126.69;;;16.94;60.11
12973;BME280;6551;51.056;9.466;2023-05-20T03:28:13;98128.84;;;16.92;60.66
12973;BME280;6551;51.056;9.466;2023-05-20T03:30:39;98140.66;;;16.74;61.35
12973;BME280;6551;51.056;9.466;2023-05-20T03:33:05;98129.59;;;16.87;61.14
12973;BME280;6551;51.056;9.466;2023-05-20T03:35:31;98134.56;;;16.79;61.32
12973;BME280;6551;51.056;9.466;2023-05-20T03:37:57;98140.19;;;16.77;61.26
12973;BME280;6551;51.056;9.466;2023-05-20T03:40:24;98139.06;;;16.73;61.74
12973;BME280;6551;51.056;9.466;2023-05-20T03:42:50;98141.97;;;16.72;61.78
12973;BME280;6551;51.056;9.466;2023-05-20T03:45:19;98137.91;;;16.69;61.92
12973;BME280;6551;51.056;9.466;2023-05-20T03:47:45;98142.63;;;16.46;62.51
12973;BME280;6551;51.056;9.466;2023-05-20T03:50:11;98132.84;;;16.39;62.51
12973;BME280;6551;51.056;9.466;2023-05-20T03:52:37;98136.47;;;16.17;63.02
12973;BME280;6551;51.056;9.466;2023-05-20T03:55:03;98123.63;;;16.19;63.29
12973;BME280;6551;51.056;9.466;2023-05-20T03:57:28;98124.91;;;16.16;63.49
12973;BME280;6551;51.056;9.466;2023-05-20T03:59:54;98119.94;;;16.08;63.67
12973;BME280;6551;51.056;9.466;2023-05-20T04:02:21;98131.16;;;16.05;64.09
12973;BME280;6551;51.056;9.466;2023-05-20T04:04:47;98128.78;;;15.92;64.64
12973;BME280;6551;51.056;9.466;2023-05-20T04:07:17;98130.91;;;15.90;64.60
12973;BME280;6551;51.056;9.466;2023-05-20T04:09:44;98131.47;;;15.92;64.71
12973;BME280;6551;51.056;9.466;2023-05-20T04:12:11;98132.03;;;15.94;64.43
12973;BME280;6551;51.056;9.466;2023-05-20T04:14:38;98122.13;;;15.95;64.30
12973;BME280;6551;51.056;9.466;2023-05-20T04:17:07;98127.00;;;15.98;64.67
12973;BME280;6551;51.056;9.466;2023-05-20T04:19:35;98129.16;;;16.12;64.49
12973;BME280;6551;51.056;9.466;2023-05-20T04:22:03;98130.34;;;15.88;64.88
12973;BME280;6551;51.056;9.466;2023-05-20T04:24:30;98128.94;;;15.86;64.64
12973;BME280;6551;51.056;9.466;2023-05-20T04:26:57;98122.78;;;15.85;65.22
12973;BME280;6551;51.056;9.466;2023-05-20T04:29:23;98131.47;;;15.92;64.90
12973;BME280;6551;51.056;9.466;2023-05-20T04:31:48;98137.41;;;15.94;64.80
12973;BME280;6551;51.056;9.466;2023-05-20T04:34:15;98128.47;;;16.05;64.82
12973;BME280;6551;51.056;9.466;2023-05-20T04:36:44;98127.69;;;16.05;64.87
12973;BME280;6551;51.056;9.466;2023-05-20T04:39:10;98121.66;;;16.14;64.49
12973;BME280;6551;51.056;9.466;2023-05-20T04:41:37;98132.28;;;16.21;64.28
12973;BME280;6551;51.056;9.466;2023-05-20T04:44:02;98129.66;;;16.09;64.34
12973;BME280;6551;51.056;9.466;2023-05-20T04:46:30;98134.88;;;16.16;64.23
12973;BME280;6551;51.056;9.466;2023-05-20T04:48:57;98139.50;;;16.20;64.57
12973;BME280;6551;51.056;9.466;2023-05-20T04:51:23;98135.00;;;16.09;64.31
12973;BME280;6551;51.056;9.466;2023-05-20T04:53:50;98143.56;;;16.06;64.81
12973;BME280;6551;51.056;9.466;2023-05-20T04:56:17;98134.28;;;16.14;64.70
12973;BME280;6551;51.056;9.466;2023-05-20T04:58:45;98133.59;;;16.35;64.29
12973;BME280;6551;51.056;9.466;2023-05-20T05:01:10;98134.22;;;16.25;63.95
12973;BME280;6551;51.056;9.466;2023-05-20T05:03:36;98122.66;;;16.25;63.56
12973;BME280;6551;51.056;9.466;2023-05-20T05:06:03;98128.84;;;16.25;64.04
12973;BME280;6551;51.056;9.466;2023-05-20T05:08:29;98131.47;;;16.37;63.93
12973;BME280;6551;51.056;9.466;2023-05-20T05:10:56;98126.50;;;16.46;63.75
12973;BME280;6551;51.056;9.466;2023-05-20T05:13:21;98132.34;;;16.43;63.71
12973;BME280;6551;51.056;9.466;2023-05-20T05:16:00;98139.06;;;16.57;63.52
12973;BME280;6551;51.056;9.466;2023-05-20T05:18:34;98138.81;;;16.58;63.71
12973;BME280;6551;51.056;9.466;2023-05-20T05:21:02;98135.03;;;16.43;63.84
12973;BME280;6551;51.056;9.466;2023-05-20T05:23:30;98131.94;;;16.51;63.54
12973;BME280;6551;51.056;9.466;2023-05-20T05:25:57;98135.81;;;16.55;63.76
12973;BME280;6551;51.056;9.466;2023-05-20T05:28:23;98121.75;;;16.53;63.51
12973;BME280;6551;51.056;9.466;2023-05-20T05:30:53;98126.16;;;16.75;63.49
12973;BME280;6551;51.056;9.466;2023-05-20T05:33:20;98123.41;;;16.70;62.86
12973;BME280;6551;51.056;9.466;2023-05-20T05:35:46;98130.16;;;16.73;63.06
12973;BME280;6551;51.056;9.466;2023-05-20T05:38:12;98126.91;;;16.87;62.56
12973;BME280;6551;51.056;9.466;2023-05-20T05:40:37;98123.63;;;16.85;62.93
12973;BME280;6551;51.056;9.466;2023-05-20T05:43:04;98119.38;;;16.89;62.80
12973;BME280;6551;51.056;9.466;2023-05-20T05:45:31;98120.09;;;17.02;62.47
12973;BME280;6551;51.056;9.466;2023-05-20T05:47:57;98114.88;;;16.95;62.52
12973;BME280;6551;51.056;9.466;2023-05-20T05:50:23;98124.47;;;17.08;61.97
12973;BME280;6551;51.056;9.466;2023-05-20T05:52:48;98130.00;;;17.18;62.56
12973;BME280;6551;51.056;9.466;2023-05-20T05:55:15;98132.72;;;17.01;62.31
12973;BME280;6551;51.056;9.466;2023-05-20T05:57:42;98135.22;;;17.08;62.22
12973;BME280;6551;51.056;9.466;2023-05-20T06:00:10;98132.75;;;17.23;61.65
12973;BME280;6551;51.056;9.466;2023-05-20T06:02:36;98124.75;;;17.28;61.36
12973;BME280;6551;51.056;9.466;2023-05-20T06:05:02;98126.63;;;17.27;61.21
12973;BME280;6551;51.056;9.466;2023-05-20T06:07:28;98135.06;;;17.14;61.79
12973;BME280;6551;51.056;9.466;2023-05-20T06:09:54;98131.56;;;17.14;61.59
12973;BME280;6551;51.056;9.466;2023-05-20T06:12:20;98133.50;;;17.18;61.67
12973;BME280;6551;51.056;9.466;2023-05-20T06:14:46;98132.19;;;17.21;61.49
12973;BME280;6551;51.056;9.466;2023-05-20T06:17:12;98139.06;;;17.12;62.51
12973;BME280;6551;51.056;9.466;2023-05-20T06:19:38;98136.63;;;17.10;62.07
12973;BME280;6551;51.056;9.466;2023-05-20T06:22:04;98133.56;;;17.02;62.92
12973;BME280;6551;51.056;9.466;2023-05-20T06:24:33;98120.28;;;16.95;62.46
12973;BME280;6551;51.056;9.466;2023-05-20T06:26:58;98119.44;;;16.94;62.73
12973;BME280;6551;51.056;9.466;2023-05-20T06:29:24;98123.63;;;16.85;63.05
12973;BME280;6551;51.056;9.466;2023-05-20T06:31:50;98116.44;;;16.91;63.09
12973;BME280;6551;51.056;9.466;2023-05-20T06:34:18;98120.53;;;16.93;63.64
12973;BME280;6551;51.056;9.466;2023-05-20T06:36:45;98121.75;;;16.86;63.31
12973;BME280;6551;51.056;9.466;2023-05-20T06:39:11;98125.94;;;16.77;64.00
12973;BME280;6551;51.056;9.466;2023-05-20T06:41:38;98120.69;;;16.87;63.86
12973;BME280;6551;51.056;9.466;2023-05-20T06:44:05;98117.50;;;16.90;63.39
12973;BME280;6551;51.056;9.466;2023-05-20T06:46:34;98117.72;;;17.05;63.35
12973;BME280;6551;51.056;9.466;2023-05-20T06:49:02;98114.09;;;16.78;64.19
12973;BME280;6551;51.056;9.466;2023-05-20T06:51:28;98113.69;;;16.69;64.17
12973;BME280;6551;51.056;9.466;2023-05-20T06:53:54;98111.19;;;16.79;63.93
12973;BME280;6551;51.056;9.466;2023-05-20T06:56:21;98105.47;;;16.76;64.32
12973;BME280;6551;51.056;9.466;2023-05-20T06:58:47;98108.78;;;16.83;63.87
12973;BME280;6551;51.056;9.466;2023-05-20T07:01:13;98117.06;;;16.76;63.92
12973;BME280;6551;51.056;9.466;2023-05-20T07:03:39;98122.84;;;16.68;64.59
12973;BME280;6551;51.056;9.466;2023-05-20T07:06:07;98118.13;;;16.59;64.79
12973;BME280;6551;51.056;9.466;2023-05-20T07:08:33;98106.25;;;16.55;65.12
12973;BME280;6551;51.056;9.466;2023-05-20T07:10:59;98107.75;;;16.51;65.23
12973;BME280;6551;51.056;9.466;2023-05-20T07:13:25;98102.81;;;16.59;65.57
12973;BME280;6551;51.056;9.466;2023-05-20T07:15:51;98103.38;;;16.61;65.44
12973;BME280;6551;51.056;9.466;2023-05-20T07:18:19;98103.22;;;16.68;64.73
12973;BME280;6551;51.056;9.466;2023-05-20T07:20:47;98098.47;;;16.75;64.96
12973;BME280;6551;51.056;9.466;2023-05-20T07:23:13;98091.22;;;16.75;64.66
12973;BME280;6551;51.056;9.466;2023-05-20T07:25:39;98097.03;;;16.89;64.31
12973;BME280;6551;51.056;9.466;2023-05-20T07:28:06;98098.47;;;16.75;64.73
12973;BME280;6551;51.056;9.466;2023-05-20T07:30:32;98100.00;;;16.87;64.31
12973;BME280;6551;51.056;9.466;2023-05-20T07:33:01;98094.31;;;17.06;63.71
12973;BME280;6551;51.056;9.466;2023-05-20T07:35:28;98094.69;;;17.14;63.67
12973;BME280;6551;51.056;9.466;2023-05-20T07:37:54;98095.44;;;17.10;63.52
12973;BME280;6551;51.056;9.466;2023-05-20T07:40:22;98100.28;;;17.29;63.33
12973;BME280;6551;51.056;9.466;2023-05-20T07:42:48;98094.47;;;17.16;63.06
12973;BME280;6551;51.056;9.466;2023-05-20T07:45:15;98086.09;;;17.39;63.11
12973;BME280;6551;51.056;9.466;2023-05-20T07:47:42;98082.03;;;17.36;63.29
12973;BME280;6551;51.056;9.466;2023-05-20T07:50:08;98086.56;;;17.31;63.20
12973;BME280;6551;51.056;9.466;2023-05-20T07:52:35;98086.09;;;17.39;62.81
12973;BME280;6551;51.056;9.466;2023-05-20T07:55:03;98089.13;;;17.64;62.32
12973;BME280;6551;51.056;9.466;2023-05-20T07:57:31;98081.75;;;17.55;62.34
12973;BME280;6551;51.056;9.466;2023-05-20T07:59:56;98083.91;;;17.58;62.33
12973;BME280;6551;51.056;9.466;2023-05-20T08:02:22;98088.56;;;17.62;62.04
12973;BME280;6551;51.056;9.466;2023-05-20T08:04:47;98084.78;;;17.63;62.36
12973;BME280;6551;51.056;9.466;2023-05-20T08:07:13;98092.19;;;17.73;61.70
12973;BME280;6551;51.056;9.466;2023-05-20T08:09:40;98087.97;;;17.82;61.37
12973;BME280;6551;51.056;9.466;2023-05-20T08:12:06;98088.19;;;17.80;61.60
12973;BME280;6551;51.056;9.466;2023-05-20T08:14:32;98087.28;;;17.70;62.22
12973;BME280;6551;51.056;9.466;2023-05-20T08:16:58;98087.97;;;17.82;61.73
12973;BME280;6551;51.056;9.466;2023-05-20T08:19:24;98082.47;;;17.72;61.87
12973;BME280;6551;51.056;9.466;2023-05-20T08:21:51;98075.47;;;17.71;61.99
12973;BME280;6551;51.056;9.466;2023-05-20T08:24:17;98085.63;;;17.90;61.60
12973;BME280;6551;51.056;9.466;2023-05-20T08:26:43;98083.28;;;17.72;61.94
12973;BME280;6551;51.056;9.466;2023-05-20T08:29:09;98076.78;;;17.68;61.95
12973;BME280;6551;51.056;9.466;2023-05-20T08:31:36;98083.22;;;17.67;62.58
12973;BME280;6551;51.056;9.466;2023-05-20T08:34:02;98068.41;;;17.43;62.72
12973;BME280;6551;51.056;9.466;2023-05-20T08:36:28;98072.22;;;17.25;63.14
12973;BME280;6551;51.056;9.466;2023-05-20T08:38:54;98073.78;;;17.43;63.14
12973;BME280;6551;51.056;9.466;2023-05-20T08:41:21;98088.34;;;17.69;62.98
12973;BME280;6551;51.056;9.466;2023-05-20T08:43:49;98077.06;;;17.72;62.25
12973;BME280;6551;51.056;9.466;2023-05-20T08:46:17;98080.78;;;17.92;61.90
12973;BME280;6551;51.056;9.466;2023-05-20T08:48:45;98074.78;;;17.85;61.64
12973;BME280;6551;51.056;9.466;2023-05-20T08:51:12;98084.03;;;17.94;61.59
12973;BME280;6551;51.056;9.466;2023-05-20T08:53:40;98073.41;;;17.83;61.66
12973;BME280;6551;51.056;9.466;2023-05-20T08:56:07;98066.66;;;17.80;62.55
12973;BME280;6551;51.056;9.466;2023-05-20T08:58:34;98070.94;;;17.76;62.37
12973;BME280;6551;51.056;9.466;2023-05-20T09:01:00;98077.59;;;17.95;62.13
12973;BME280;6551;51.056;9.466;2023-05-20T09:03:26;98078.69;;;17.99;61.78
12973;BME280;6551;51.056;9.466;2023-05-20T09:06:06;98074.47;;;18.08;61.69
12973;BME280;6551;51.056;9.466;2023-05-20T09:08:32;98070.16;;;18.07;62.82
12973;BME280;6551;51.056;9.466;2023-05-20T09:10:59;98066.66;;;18.07;61.65
12973;BME280;6551;51.056;9.466;2023-05-20T09:13:26;98070.72;;;18.09;61.81
12973;BME280;6551;51.056;9.466;2023-05-20T09:15:55;98064.03;;;18.17;61.70
12973;BME280;6551;51.056;9.466;2023-05-20T09:18:20;98070.53;;;18.21;61.22
12973;BME280;6551;51.056;9.466;2023-05-20T09:20:49;98064.50;;;18.41;60.92
12973;BME280;6551;51.056;9.466;2023-05-20T09:23:18;98065.94;;;18.53;60.65
12973;BME280;6551;51.056;9.466;2023-05-20T09:25:49;98061.97;;;18.66;60.20
12973;BME280;6551;51.056;9.466;2023-05-20T09:28:18;98070.72;;;18.83;59.96
12973;BME280;6551;51.056;9.466;2023-05-20T09:30:44;98081.16;;;18.69;60.38
12973;BME280;6551;51.056;9.466;2023-05-20T09:33:12;98069.88;;;18.78;60.48
12973;BME280;6551;51.056;9.466;2023-05-20T09:35:38;98066.81;;;18.64;59.90
12973;BME280;6551;51.056;9.466;2023-05-20T09:38:05;98082.53;;;18.77;60.15
12973;BME280;6551;51.056;9.466;2023-05-20T09:40:34;98088.09;;;19.02;59.83
12973;BME280;6551;51.056;9.466;2023-05-20T09:43:05;98084.59;;;19.02;59.41
12973;BME280;6551;51.056;9.466;2023-05-20T09:45:39;98079.44;;;18.95;59.71
12973;BME280;6551;51.056;9.466;2023-05-20T09:48:07;98073.22;;;19.00;59.16
12973;BME280;6551;51.056;9.466;2023-05-20T09:50:35;98072.88;;;18.86;59.50
12973;BME280;6551;51.056;9.466;2023-05-20T09:53:05;98079.66;;;18.94;59.37
12973;BME280;6551;51.056;9.466;2023-05-20T09:55:36;98083.28;;;19.09;59.95
12973;BME280;6551;51.056;9.466;2023-05-20T09:58:03;98076.13;;;18.83;59.32
12973;BME280;6551;51.056;9.466;2023-05-20T10:00:30;98067.91;;;18.63;60.20
12973;BME280;6551;51.056;9.466;2023-05-20T10:02:56;98077.38;;;18.65;59.96
12973;BME280;6551;51.056;9.466;2023-05-20T10:05:36;98075.16;;;18.57;60.27
12973;BME280;6551;51.056;9.466;2023-05-20T10:08:47;98072.53;;;18.73;60.50
12973;BME280;6551;51.056;9.466;2023-05-20T10:11:40;98058.00;;;18.74;60.91
12973;BME280;6551;51.056;9.466;2023-05-20T10:17:24;98062.50;;;19.10;59.26
12973;BME280;6551;51.056;9.466;2023-05-20T10:20:00;98057.25;;;19.45;59.59
12973;BME280;6551;51.056;9.466;2023-05-20T10:22:28;98042.94;;;19.45;59.31
12973;BME280;6551;51.056;9.466;2023-05-20T10:25:04;98041.94;;;19.71;56.96
12973;BME280;6551;51.056;9.466;2023-05-20T10:27:48;98041.91;;;20.82;56.92
12973;BME280;6551;51.056;9.466;2023-05-20T10:30:21;98038.16;;;21.42;55.28
12973;BME280;6551;51.056;9.466;2023-05-20T10:32:57;98034.25;;;21.58;53.94
12973;BME280;6551;51.056;9.466;2023-05-20T10:35:29;98028.13;;;21.42;53.34
12973;BME280;6551;51.056;9.466;2023-05-20T10:38:10;98036.41;;;21.12;52.89
12973;BME280;6551;51.056;9.466;2023-05-20T10:40:38;98035.69;;;20.66;54.68
12973;BME280;6551;51.056;9.466;2023-05-20T10:43:12;98037.91;;;20.39;54.92
12973;BME280;6551;51.056;9.466;2023-05-20T10:45:55;98035.47;;;20.32;55.12
12973;BME280;6551;51.056;9.466;2023-05-20T10:48:29;98025.72;;;20.06;55.88
12973;BME280;6551;51.056;9.466;2023-05-20T10:51:00;98028.69;;;20.05;56.45
12973;BME280;6551;51.056;9.466;2023-05-20T10:53:41;98019.25;;;20.07;56.36
12973;BME280;6551;51.056;9.466;2023-05-20T10:56:17;98017.59;;;19.86;56.74
12973;BME280;6551;51.056;9.466;2023-05-20T10:58:43;98019.22;;;19.77;56.71
12973;BME280;6551;51.056;9.466;2023-05-20T11:01:09;98020.84;;;19.83;56.60
12973;BME280;6551;51.056;9.466;2023-05-20T11:03:37;98027.34;;;19.82;57.08
12973;BME280;6551;51.056;9.466;2023-05-20T11:06:14;98030.31;;;19.70;56.77
12973;BME280;6551;51.056;9.466;2023-05-20T11:08:40;98034.34;;;19.68;57.64
12973;BME280;6551;51.056;9.466;2023-05-20T11:11:07;98029.19;;;19.51;56.95
12973;BME280;6551;51.056;9.466;2023-05-20T11:13:34;98031.59;;;19.43;57.49
12973;BME280;6551;51.056;9.466;2023-05-20T11:16:01;98032.03;;;19.24;57.38
12973;BME280;6551;51.056;9.466;2023-05-20T11:18:29;98033.22;;;18.87;58.40
12973;BME280;6551;51.056;9.466;2023-05-20T11:21:00;98024.94;;;19.03;58.40
12973;BME280;6551;51.056;9.466;2023-05-20T11:23:28;98014.75;;;19.15;59.50
12973;BME280;6551;51.056;9.466;2023-05-20T11:25:56;98010.94;;;19.16;59.10
12973;BME280;6551;51.056;9.466;2023-05-20T11:28:23;98016.13;;;19.33;58.62
12973;BME280;6551;51.056;9.466;2023-05-20T11:30:50;98011.22;;;19.20;58.97
12973;BME280;6551;51.056;9.466;2023-05-20T11:33:17;98006.44;;;19.37;58.81
12973;BME280;6551;51.056;9.466;2023-05-20T11:35:53;98014.34;;;19.59;58.42
12973;BME280;6551;51.056;9.466;2023-05-20T11:38:20;98003.28;;;19.80;58.42
12973;BME280;6551;51.056;9.466;2023-05-20T11:40:52;98008.16;;;19.78;57.65
12973;BME280;6551;51.056;9.466;2023-05-20T11:43:22;98009.75;;;19.69;57.63
12973;BME280;6551;51.056;9.466;2023-05-20T11:45:56;98005.16;;;19.60;58.01
12973;BME280;6551;51.056;9.466;2023-05-20T11:48:25;98004.88;;;19.71;58.02
12973;BME280;6551;51.056;9.466;2023-05-20T11:50:54;98000.81;;;19.59;58.22
12973;BME280;6551;51.056;9.466;2023-05-20T11:53:22;98003.00;;;19.57;58.85
12973;BME280;6551;51.056;9.466;2023-05-20T11:55:56;98003.28;;;19.70;58.32
12973;BME280;6551;51.056;9.466;2023-05-20T11:58:28;98001.13;;;19.62;57.79
12973;BME280;6551;51.056;9.466;2023-05-20T12:00:54;98003.72;;;19.32;58.41
12973;BME280;6551;51.056;9.466;2023-05-20T12:03:21;97999.69;;;19.35;58.65
12973;BME280;6551;51.056;9.466;2023-05-20T12:05:48;97985.34;;;19.24;58.97
12973;BME280;6551;51.056;9.466;2023-05-20T12:08:16;97985.31;;;19.19;59.37
12973;BME280;6551;51.056;9.466;2023-05-20T12:10:42;97979.13;;;19.28;58.58
12973;BME280;6551;51.056;9.466;2023-05-20T12:13:09;97991.38;;;19.56;58.91
12973;BME280;6551;51.056;9.466;2023-05-20T12:15:38;97977.34;;;19.79;58.84
12973;BME280;6551;51.056;9.466;2023-05-20T12:18:04;97973.00;;;19.78;57.95
12973;BME280;6551;51.056;9.466;2023-05-20T12:20:31;97981.41;;;19.87;57.76
12973;BME280;6551;51.056;9.466;2023-05-20T12:22:59;97981.66;;;19.65;58.43
12973;BME280;6551;51.056;9.466;2023-05-20T12:25:25;97986.72;;;19.37;58.52
12973;BME280;6551;51.056;9.466;2023-05-20T12:27:53;97974.09;;;19.62;59.22
12973;BME280;6551;51.056;9.466;2023-05-20T12:30:21;97966.78;;;19.98;58.39
12973;BME280;6551;51.056;9.466;2023-05-20T12:32:50;97959.22;;;20.25;57.78
12973;BME280;6551;51.056;9.466;2023-05-20T12:35:20;97953.53;;;20.32;57.04
12973;BME280;6551;51.056;9.466;2023-05-20T12:37:46;97939.22;;;20.26;56.50
12973;BME280;6551;51.056;9.466;2023-05-20T12:40:12;97944.56;;;20.52;57.62
12973;BME280;6551;51.056;9.466;2023-05-20T12:42:40;97942.38;;;20.59;56.54
12973;BME280;6551;51.056;9.466;2023-05-20T12:45:08;97933.66;;;20.77;56.55
12973;BME280;6551;51.056;9.466;2023-05-20T12:47:36;97938.34;;;20.51;56.02
12973;BME280;6551;51.056;9.466;2023-05-20T12:50:05;97938.34;;;20.46;56.83
12973;BME280;6551;51.056;9.466;2023-05-20T12:52:32;97945.63;;;20.56;56.72
12973;BME280;6551;51.056;9.466;2023-05-20T12:54:58;97945.41;;;20.27;57.27
12973;BME280;6551;51.056;9.466;2023-05-20T12:57:24;97944.78;;;20.55;56.82
12973;BME280;6551;51.056;9.466;2023-05-20T12:59:50;97938.94;;;20.28;56.83
12973;BME280;6551;51.056;9.466;2023-05-20T13:02:18;97934.03;;;20.40;56.50
12973;BME280;6551;51.056;9.466;2023-05-20T13:04:44;97940.78;;;20.48;56.51
12973;BME280;6551;51.056;9.466;2023-05-20T13:07:09;97941.03;;;20.51;56.64
12973;BME280;6551;51.056;9.466;2023-05-20T13:09:35;97936.34;;;20.72;56.34
12973;BME280;6551;51.056;9.466;2023-05-20T13:12:02;97943.63;;;20.81;56.46
12973;BME280;6551;51.056;9.466;2023-05-20T13:14:28;97944.78;;;20.60;55.90
12973;BME280;6551;51.056;9.466;2023-05-20T13:16:54;97948.38;;;20.46;56.07